createdAt,value
2023-04-28T00:01:01.051Z,8.23
2023-04-28T00:04:03.558Z,8.22
2023-04-28T00:07:05.516Z,8.20
2023-04-28T00:10:08.010Z,8.20
2023-04-28T00:13:10.435Z,8.18
2023-04-28T00:16:12.224Z,8.17
2023-04-28T00:19:13.925Z,8.16
2023-04-28T00:22:15.620Z,8.16
2023-04-28T00:25:17.359Z,8.15
2023-04-28T00:28:32.902Z,8.15
2023-04-28T00:31:35.836Z,8.15
2023-04-28T00:34:37.580Z,8.16
2023-04-28T00:37:39.412Z,8.14
2023-04-28T00:40:41.250Z,8.14
2023-04-28T00:43:49.974Z,8.13
2023-04-28T00:46:53.194Z,8.11
2023-04-28T00:49:55.254Z,8.09
2023-04-28T00:52:57.156Z,8.08
2023-04-28T00:55:59.183Z,8.07
2023-04-28T00:59:00.959Z,8.08
2023-04-28T01:02:03.191Z,8.07
2023-04-28T01:05:04.964Z,8.07
2023-04-28T01:08:07.503Z,8.07
2023-04-28T01:11:13.557Z,8.07
2023-04-28T01:14:39.301Z,8.04
2023-04-28T01:17:41.572Z,8.03
2023-04-28T01:20:44.147Z,8.01
2023-04-28T01:23:46.236Z,7.99
2023-04-28T01:26:47.980Z,7.98
2023-04-28T01:29:50.220Z,7.97
2023-04-28T01:32:51.961Z,7.95
2023-04-28T01:35:58.084Z,7.93
2023-04-28T01:39:00.166Z,7.91
2023-04-28T01:42:01.816Z,7.90
2023-04-28T01:45:04.722Z,7.88
2023-04-28T01:48:06.609Z,7.87
2023-04-28T01:51:08.404Z,7.86
2023-04-28T01:54:12.513Z,7.85
2023-04-28T01:57:15.521Z,7.84
2023-04-28T02:00:19.792Z,7.84
2023-04-28T02:03:25.680Z,7.82
2023-04-28T02:06:27.525Z,7.80
2023-04-28T02:09:29.250Z,7.80
2023-04-28T02:12:33.363Z,7.79
2023-04-28T02:15:39.762Z,7.77
2023-04-28T02:18:41.431Z,7.77
2023-04-28T02:21:43.220Z,7.75
2023-04-28T02:24:45.064Z,7.73
2023-04-28T02:27:47.248Z,7.72
2023-04-28T02:30:48.884Z,7.69
2023-04-28T02:33:52.331Z,7.67
2023-04-28T02:36:54.118Z,7.65
2023-04-28T02:39:56.311Z,7.62
2023-04-28T02:42:57.997Z,7.58
2023-04-28T02:45:59.881Z,7.52
2023-04-28T02:49:01.523Z,7.45
2023-04-28T02:52:03.851Z,7.39
2023-04-28T02:55:06.095Z,7.33
2023-04-28T02:58:07.785Z,7.28
2023-04-28T03:01:09.587Z,7.26
2023-04-28T03:04:11.542Z,7.21
2023-04-28T03:07:13.423Z,7.17
2023-04-28T03:10:15.224Z,7.14
2023-04-28T03:13:16.964Z,7.12
2023-04-28T03:16:18.769Z,7.09
2023-04-28T03:19:20.644Z,7.06
2023-04-28T03:22:22.536Z,7.03
2023-04-28T03:25:24.353Z,6.99
2023-04-28T03:28:26.364Z,6.96
2023-04-28T03:31:28.212Z,6.93
2023-04-28T03:34:29.939Z,6.90
2023-04-28T03:37:31.671Z,6.88
2023-04-28T03:40:33.621Z,6.85
2023-04-28T03:43:56.181Z,6.82
2023-04-28T03:47:04.103Z,6.80
2023-04-28T03:50:06.553Z,6.78
2023-04-28T03:53:08.196Z,6.76
2023-04-28T03:56:10.375Z,6.76
2023-04-28T03:59:13.934Z,6.75
2023-04-28T04:02:15.635Z,6.73
2023-04-28T04:05:17.596Z,6.73
2023-04-28T04:08:19.503Z,6.72
2023-04-28T04:11:21.273Z,6.73
2023-04-28T04:14:23.071Z,6.73
2023-04-28T04:17:25.121Z,6.74
2023-04-28T04:20:26.952Z,6.76
2023-04-28T04:23:28.761Z,6.77
2023-04-28T04:26:30.645Z,6.77
2023-04-28T04:29:32.885Z,6.79
2023-04-28T04:32:36.021Z,6.82
2023-04-28T04:35:38.090Z,6.85
2023-04-28T04:38:40.208Z,6.89
2023-04-28T04:41:48.358Z,6.93
2023-04-28T04:45:09.700Z,6.99
2023-04-28T04:48:11.871Z,7.05
2023-04-28T04:51:13.678Z,7.11
2023-04-28T04:54:15.641Z,7.18
2023-04-28T04:57:17.742Z,7.26
2023-04-28T05:00:54.657Z,7.36
2023-04-28T05:03:56.591Z,7.45
2023-04-28T05:06:58.406Z,7.53
2023-04-28T05:10:00.731Z,7.61
2023-04-28T05:13:02.540Z,7.70
2023-04-28T05:16:04.774Z,7.79
2023-04-28T05:19:09.350Z,7.89
2023-04-28T05:22:11.584Z,8.00
2023-04-28T05:25:13.335Z,8.10
2023-04-28T05:28:15.089Z,8.18
2023-04-28T05:31:17.287Z,8.24
2023-04-28T05:34:19.522Z,8.31
2023-04-28T05:37:21.396Z,8.41
2023-04-28T05:40:23.569Z,8.51
2023-04-28T05:43:25.410Z,8.61
2023-04-28T05:46:30.985Z,8.72
2023-04-28T05:49:37.060Z,8.84
2023-04-28T05:52:39.470Z,8.97
2023-04-28T05:55:41.348Z,9.09
2023-04-28T05:58:44.432Z,9.20
2023-04-28T06:01:52.536Z,9.28
2023-04-28T06:04:55.203Z,9.34
2023-04-28T06:07:57.119Z,9.38
2023-04-28T06:10:58.775Z,9.42
2023-04-28T06:14:00.583Z,9.44
2023-04-28T06:17:02.540Z,9.48
2023-04-28T06:20:05.350Z,9.50
2023-04-28T06:23:08.395Z,9.54
2023-04-28T06:26:11.269Z,9.59
2023-04-28T06:29:14.324Z,9.63
2023-04-28T06:32:16.088Z,9.67
2023-04-28T06:35:17.823Z,9.70
2023-04-28T06:38:19.507Z,9.76
2023-04-28T06:41:21.461Z,9.82
2023-04-28T06:44:25.708Z,9.86
2023-04-28T06:47:27.416Z,9.91
2023-04-28T06:50:41.766Z,9.97
2023-04-28T06:53:46.306Z,10.02
2023-04-28T06:56:52.015Z,10.07
2023-04-28T06:59:53.791Z,10.12
2023-04-28T07:02:58.887Z,10.17
2023-04-28T07:06:03.925Z,10.24
2023-04-28T07:09:05.824Z,10.30
2023-04-28T07:12:07.705Z,10.36
2023-04-28T07:15:25.672Z,10.44
2023-04-28T07:18:28.310Z,10.55
2023-04-28T07:21:30.785Z,10.69
2023-04-28T07:24:32.562Z,10.84
2023-04-28T07:27:38.152Z,10.99
2023-04-28T07:30:40.060Z,11.16
2023-04-28T07:33:45.058Z,11.30
2023-04-28T07:36:47.255Z,11.44
2023-04-28T07:39:49.164Z,11.55
2023-04-28T07:42:51.421Z,11.68
2023-04-28T07:45:53.234Z,11.86
2023-04-28T07:48:55.136Z,12.04
2023-04-28T07:52:12.995Z,12.25
2023-04-28T07:55:14.873Z,12.48
2023-04-28T07:58:16.677Z,12.68
2023-04-28T08:01:18.535Z,12.88
2023-04-28T08:07:22.209Z,13.30
2023-04-28T08:10:25.971Z,13.48
2023-04-28T08:13:28.344Z,13.65
2023-04-28T08:16:30.993Z,13.80
2023-04-28T08:19:32.968Z,13.97
2023-04-28T08:22:35.072Z,14.11
2023-04-28T08:25:36.958Z,14.27
2023-04-28T08:28:39.526Z,14.41
2023-04-28T08:31:41.505Z,14.54
2023-04-28T08:34:43.369Z,14.66
2023-04-28T08:37:45.778Z,14.77
2023-04-28T08:40:47.371Z,14.90
2023-04-28T08:43:49.672Z,15.02
2023-04-28T08:46:53.882Z,15.16
2023-04-28T08:50:01.893Z,15.31
2023-04-28T08:56:07.249Z,15.50
2023-04-28T08:59:09.130Z,15.49
2023-04-28T09:02:11.405Z,15.56
2023-04-28T09:05:14.036Z,15.68
2023-04-28T09:08:16.062Z,15.83
2023-04-28T09:11:18.773Z,15.97
2023-04-28T09:14:22.121Z,16.13
2023-04-28T09:17:23.998Z,16.32
2023-04-28T09:20:27.710Z,16.54
2023-04-28T09:23:30.201Z,16.74
2023-04-28T09:26:50.065Z,16.92
2023-04-28T09:29:53.510Z,17.12
2023-04-28T09:33:05.008Z,17.25
2023-04-28T09:36:07.329Z,17.38
2023-04-28T09:39:09.106Z,17.53
2023-04-28T09:42:29.972Z,17.70
2023-04-28T09:45:41.934Z,17.87
2023-04-28T09:48:44.404Z,17.99
2023-04-28T09:51:46.270Z,17.96
2023-04-28T09:54:53.852Z,17.77
2023-04-28T09:57:59.596Z,17.59
2023-04-28T10:01:02.669Z,17.53
2023-04-28T10:04:06.855Z,17.47
2023-04-28T10:07:09.904Z,17.50
2023-04-28T10:10:13.949Z,17.43
2023-04-28T10:13:17.399Z,17.47
2023-04-28T10:16:19.685Z,17.57
2023-04-28T10:19:21.473Z,17.52
2023-04-28T10:23:24.594Z,17.50
2023-04-28T10:26:35.776Z,17.44
2023-04-28T10:29:37.881Z,17.45
2023-04-28T10:32:40.992Z,17.59
2023-04-28T10:35:47.341Z,17.74
2023-04-28T10:39:09.231Z,17.72
2023-04-28T10:42:47.832Z,17.60
2023-04-28T10:45:55.649Z,17.41
2023-04-28T10:48:58.784Z,17.30
2023-04-28T10:52:00.553Z,17.35
2023-04-28T10:55:35.837Z,17.34
2023-04-28T10:58:42.034Z,17.26
2023-04-28T11:01:45.199Z,17.41
2023-04-28T11:05:12.081Z,17.68
2023-04-28T11:08:31.103Z,17.99
2023-04-28T11:11:35.569Z,18.29
2023-04-28T11:14:39.913Z,18.53
2023-04-28T11:17:41.966Z,18.64
2023-04-28T11:20:52.724Z,18.69
2023-04-28T11:23:54.864Z,18.83
2023-04-28T11:26:58.063Z,18.95
2023-04-28T11:30:04.279Z,19.07
2023-04-28T11:33:07.322Z,19.16
2023-04-28T11:36:21.991Z,19.05
2023-04-28T11:39:31.739Z,18.88
2023-04-28T11:42:33.496Z,18.91
2023-04-28T11:45:38.394Z,19.09
2023-04-28T11:48:41.293Z,19.28
2023-04-28T11:51:46.246Z,19.32
2023-04-28T11:54:57.247Z,19.27
2023-04-28T11:58:23.416Z,19.39
2023-04-28T12:01:25.203Z,19.59
2023-04-28T12:04:37.694Z,19.75
2023-04-28T12:07:43.777Z,19.93
2023-04-28T12:11:14.762Z,20.09
2023-04-28T12:14:16.968Z,20.23
2023-04-28T12:17:29.635Z,20.34
2023-04-28T12:20:38.674Z,20.46
2023-04-28T12:23:42.573Z,20.47
2023-04-28T12:26:44.626Z,20.34
2023-04-28T12:29:47.414Z,20.13
2023-04-28T12:32:49.242Z,19.96
2023-04-28T12:35:51.792Z,19.88
2023-04-28T12:38:53.659Z,19.87
2023-04-28T12:41:59.335Z,19.93
2023-04-28T12:45:01.350Z,20.02
2023-04-28T12:48:03.216Z,20.08
2023-04-28T12:51:05.535Z,20.14
2023-04-28T12:54:07.529Z,20.20
2023-04-28T12:57:09.355Z,20.21
2023-04-28T13:00:16.048Z,20.19
2023-04-28T13:03:19.265Z,20.06
2023-04-28T13:06:21.648Z,19.94
2023-04-28T13:09:25.056Z,19.89
2023-04-28T13:12:27.019Z,19.91
2023-04-28T13:15:29.655Z,19.93
2023-04-28T13:18:31.651Z,19.97
2023-04-28T13:21:33.371Z,19.99
2023-04-28T13:24:35.527Z,19.98
2023-04-28T13:27:37.770Z,19.94
2023-04-28T13:30:40.055Z,19.92
2023-04-28T13:33:41.916Z,19.91
2023-04-28T13:36:44.545Z,19.92
2023-04-28T13:39:46.346Z,19.93
2023-04-28T13:42:48.079Z,19.91
2023-04-28T13:45:51.984Z,19.88
2023-04-28T13:48:54.345Z,19.77
2023-04-28T13:51:56.198Z,19.66
2023-04-28T13:54:58.300Z,19.61
2023-04-28T13:58:04.039Z,19.62
2023-04-28T14:01:05.868Z,19.66
2023-04-28T14:04:07.930Z,19.60
2023-04-28T14:07:10.045Z,19.56
2023-04-28T14:10:11.971Z,19.59
2023-04-28T14:13:13.957Z,19.57
2023-04-28T14:16:38.726Z,19.52
2023-04-28T14:19:40.848Z,19.44
2023-04-28T14:22:42.793Z,19.39
2023-04-28T14:25:57.367Z,19.32
2023-04-28T14:28:59.994Z,19.23
2023-04-28T14:32:01.769Z,19.15
2023-04-28T14:35:05.567Z,19.07
2023-04-28T14:38:07.428Z,19.01
2023-04-28T14:41:09.330Z,18.97
2023-04-28T14:44:11.073Z,18.90
2023-04-28T14:47:13.006Z,18.84
2023-04-28T14:50:14.676Z,18.77
2023-04-28T14:53:16.369Z,18.67
2023-04-28T14:56:27.832Z,18.57
2023-04-28T14:59:29.579Z,18.45
2023-04-28T15:02:31.486Z,18.35
2023-04-28T15:05:33.349Z,18.27
2023-04-28T15:08:34.999Z,18.19
2023-04-28T15:11:36.684Z,18.11
2023-04-28T15:14:38.372Z,18.04
2023-04-28T15:17:40.130Z,17.98
2023-04-28T15:20:42.000Z,17.93
2023-04-28T15:23:43.716Z,17.87
2023-04-28T15:26:45.616Z,17.82
2023-04-28T15:29:47.395Z,17.76
2023-04-28T15:32:49.511Z,17.72
2023-04-28T15:35:51.306Z,17.67
2023-04-28T15:38:53.236Z,17.63
2023-04-28T15:41:55.526Z,17.59
2023-04-28T15:44:57.275Z,17.55
2023-04-28T15:47:59.440Z,17.50
2023-04-28T15:51:01.474Z,17.45
2023-04-28T15:54:03.703Z,17.41
2023-04-28T15:57:05.510Z,17.36
2023-04-28T16:00:08.380Z,17.33
2023-04-28T16:03:11.232Z,17.30
2023-04-28T16:06:14.270Z,17.26
2023-04-28T16:09:16.364Z,17.24
2023-04-28T16:12:18.768Z,17.23
2023-04-28T16:15:20.920Z,17.21
2023-04-28T16:18:23.661Z,17.18
2023-04-28T16:21:26.149Z,17.15
2023-04-28T16:24:29.868Z,17.12
2023-04-28T16:27:32.882Z,17.09
2023-04-28T16:30:35.308Z,17.05
2023-04-28T16:33:37.193Z,17.01
2023-04-28T16:36:39.634Z,16.96
2023-04-28T16:39:41.398Z,16.92
2023-04-28T16:42:44.705Z,16.88
2023-04-28T16:45:47.604Z,16.84
2023-04-28T16:48:49.550Z,16.81
2023-04-28T16:51:59.265Z,16.77
2023-04-28T16:55:08.270Z,16.74
2023-04-28T16:58:09.963Z,16.70
2023-04-28T17:01:11.684Z,16.66
2023-04-28T17:04:14.155Z,16.63
2023-04-28T17:07:15.991Z,16.59
2023-04-28T17:10:17.721Z,16.55
2023-04-28T17:13:19.460Z,16.52
2023-04-28T17:16:21.426Z,16.48
2023-04-28T17:19:23.344Z,16.44
2023-04-28T17:22:25.041Z,16.41
2023-04-28T17:25:26.738Z,16.38
2023-04-28T17:28:28.477Z,16.35
2023-04-28T17:31:30.534Z,16.32
2023-04-28T17:34:32.367Z,16.30
2023-04-28T17:37:35.005Z,16.29
2023-04-28T17:40:37.377Z,16.28
2023-04-28T17:43:39.189Z,16.26
2023-04-28T17:46:41.343Z,16.25
2023-04-28T17:49:43.032Z,16.23
2023-04-28T17:52:44.772Z,16.21
2023-04-28T17:55:46.531Z,16.19
2023-04-28T17:58:48.237Z,16.17
2023-04-28T18:01:50.109Z,16.15
2023-04-28T18:04:52.151Z,16.11
2023-04-28T18:07:54.702Z,16.09
2023-04-28T18:10:56.461Z,16.06
2023-04-28T18:13:58.260Z,16.02
2023-04-28T18:17:00.197Z,15.97
2023-04-28T18:20:03.669Z,15.94
2023-04-28T18:23:06.226Z,15.89
2023-04-28T18:26:08.140Z,15.85
2023-04-28T18:29:09.774Z,15.81
2023-04-28T18:32:14.337Z,15.77
2023-04-28T18:35:17.489Z,15.74
2023-04-28T18:38:19.757Z,15.71
2023-04-28T18:41:21.721Z,15.66
2023-04-28T18:44:23.462Z,15.63
2023-04-28T18:47:25.158Z,15.59
2023-04-28T18:50:28.307Z,15.56
2023-04-28T18:53:30.089Z,15.52
2023-04-28T18:56:31.872Z,15.49
2023-04-28T18:59:33.535Z,15.44
2023-04-28T19:02:35.706Z,15.38
2023-04-28T19:05:38.163Z,15.32
2023-04-28T19:08:40.870Z,15.27
2023-04-28T19:11:42.432Z,15.23
2023-04-28T19:14:44.320Z,15.17
2023-04-28T19:17:48.536Z,15.11
2023-04-28T19:20:58.566Z,15.06
2023-04-28T19:24:45.799Z,15.00
2023-04-28T19:27:47.822Z,14.93
2023-04-28T19:30:49.996Z,14.88
2023-04-28T19:33:51.775Z,14.83
2023-04-28T19:36:55.209Z,14.76
2023-04-28T19:39:57.167Z,14.68
2023-04-28T19:42:59.662Z,14.60
2023-04-28T19:46:05.023Z,14.52
2023-04-28T19:49:12.142Z,14.44
2023-04-28T19:52:13.976Z,14.37
2023-04-28T19:55:19.307Z,14.29
2023-04-28T19:58:21.797Z,14.21
2023-04-28T20:01:23.671Z,14.14
2023-04-28T20:04:28.334Z,14.06
2023-04-28T20:07:30.460Z,13.99
2023-04-28T20:10:32.479Z,13.92
2023-04-28T20:13:34.335Z,13.86
2023-04-28T20:16:36.203Z,13.80
2023-04-28T20:20:28.677Z,13.76
2023-04-28T20:27:29.835Z,13.64
2023-04-28T20:33:48.571Z,13.52
2023-04-28T20:36:53.231Z,13.49
2023-04-28T20:39:55.725Z,13.44
2023-04-28T20:42:58.254Z,13.39
2023-04-28T20:46:00.090Z,13.36
2023-04-28T20:49:02.443Z,13.31
2023-04-28T20:52:04.682Z,13.28
2023-04-28T20:55:08.953Z,13.25
2023-04-28T20:58:10.677Z,13.19
2023-04-28T21:01:13.053Z,13.14
2023-04-28T21:04:15.075Z,13.09
2023-04-28T21:07:17.113Z,13.06
2023-04-28T21:10:18.869Z,13.01
2023-04-28T21:13:20.644Z,12.98
2023-04-28T21:16:22.505Z,12.92
2023-04-28T21:19:25.190Z,12.88
2023-04-28T21:22:29.295Z,12.84
2023-04-28T21:25:31.017Z,12.80
2023-04-28T21:28:33.965Z,12.76
2023-04-28T21:31:35.842Z,12.72
2023-04-28T21:34:37.563Z,12.67
2023-04-28T21:37:39.500Z,12.64
2023-04-28T21:40:41.286Z,12.61
2023-04-28T21:43:42.979Z,12.57
2023-04-28T21:46:44.668Z,12.54
2023-04-28T21:49:46.765Z,12.52
2023-04-28T21:52:48.458Z,12.49
2023-04-28T21:55:50.276Z,12.48
2023-04-28T21:58:51.921Z,12.46
2023-04-28T22:01:54.637Z,12.46
2023-04-28T22:04:56.345Z,12.46
2023-04-28T22:07:58.036Z,12.44
2023-04-28T22:11:00.362Z,12.43
2023-04-28T22:14:02.006Z,12.42
2023-04-28T22:17:03.717Z,12.43
2023-04-28T22:20:06.249Z,12.44
2023-04-28T22:23:07.975Z,12.44
2023-04-28T22:26:09.775Z,12.44
2023-04-28T22:29:11.739Z,12.44
2023-04-28T22:32:13.460Z,12.44
2023-04-28T22:35:15.926Z,12.44
2023-04-28T22:38:17.696Z,12.44
2023-04-28T22:41:19.395Z,12.45
2023-04-28T22:44:21.258Z,12.45
2023-04-28T22:47:23.030Z,12.46
2023-04-28T22:50:24.743Z,12.47
2023-04-28T22:53:27.028Z,12.47
2023-04-28T22:56:28.730Z,12.47
2023-04-28T22:59:32.455Z,12.47
2023-04-28T23:02:34.277Z,12.46
2023-04-28T23:05:37.330Z,12.44
2023-04-28T23:08:39.059Z,12.42
2023-04-28T23:11:40.907Z,12.41
2023-04-28T23:14:42.617Z,12.41
2023-04-28T23:17:44.307Z,12.40
2023-04-28T23:20:49.422Z,12.39
2023-04-28T23:23:51.091Z,12.39
2023-04-28T23:26:52.826Z,12.39
2023-04-28T23:29:54.548Z,12.39
2023-04-28T23:32:56.336Z,12.39
2023-04-28T23:35:58.213Z,12.40
2023-04-28T23:39:00.972Z,12.41
2023-04-28T23:42:02.846Z,12.42
2023-04-28T23:45:06.147Z,12.43
2023-04-28T23:48:07.851Z,12.45
2023-04-28T23:51:09.600Z,12.46
2023-04-28T23:54:11.398Z,12.48
2023-04-28T23:57:13.140Z,12.49
